Home   Weather   USA   Andrews   Past weeks
Flag for USA

Past Weather in Andrews, Texas, USA — Yesterday and Last 2 Weeks

Currently: 72 °F. Clear. (Weather station: Andrews Co, USA). See more current weather

Past Weather in Andrews — Graph

°F

Andrews Temperature Yesterday

Maximum temperature yesterday: 76 °F (at 6:15 pm)
Minimum temperature yesterday: 49 °F (at 6:55 am)
Average temperature yesterday: 62 °F

High & Low Weather Summary for the Past Weeks

  Temperature Humidity Pressure
High 95 °F (Apr 26, 4:55 pm) 100% (Apr 30, 10:15 pm) 30.28 "Hg (Apr 30, 10:15 pm)
Low 47 °F (May 2, 6:35 am) 4% (Apr 28, 4:55 pm) 29.67 "Hg (Apr 26, 6:35 pm)
Average 69 °F 41% 29.94 "Hg
* Reported Apr 23 10:15 pm — May 8 10:15 pm, Andrews. Weather by CustomWeather, © 2026

Note: Actual official high and low records may vary slightly from our data, if they occured in-between our weather recording intervals... More about our weather records

Andrews Weather History for the Previous 24 Hours

Scroll right to see more
  Conditions Comfort    
Time   Temp Weather Wind   Humidity Barometer Visibility
10:15 pm
Fri, May 8
74 °F Clear. 10 mph 40% 29.88 "Hg 10 mi
9:55 pm 75 °F Clear. 9 mph 41% 29.87 "Hg 10 mi
9:35 pm 75 °F Clear. 12 mph 40% 29.87 "Hg 10 mi
8:55 pm 78 °F Clear. 10 mph 31% 29.85 "Hg 10 mi
8:15 pm 82 °F Sunny. 8 mph 25% 29.84 "Hg 10 mi
7:55 pm 83 °F Sunny. 6 mph 23% 29.83 "Hg 10 mi
7:35 pm 83 °F Sunny. 6 mph 22% 29.82 "Hg 10 mi
6:55 pm 85 °F Sunny. 8 mph 19% 29.82 "Hg 10 mi
6:35 pm 85 °F Sunny. 5 mph 15% 29.81 "Hg 10 mi
6:15 pm 85 °F Sunny. 3 mph 15% 29.81 "Hg 10 mi
5:35 pm 88 °F Sunny. 10 mph 15% 29.81 "Hg 10 mi
4:55 pm 87 °F Sunny. 7 mph 18% 29.82 "Hg 10 mi
4:15 pm 85 °F Sunny. 6 mph 23% 29.83 "Hg 10 mi
3:55 pm 85 °F Sunny. 6 mph 23% 29.84 "Hg 10 mi
3:35 pm 84 °F Sunny. 6 mph 23% 29.85 "Hg 10 mi
3:15 pm 83 °F Sunny. 3 mph 27% 29.86 "Hg 10 mi
2:55 pm 82 °F Sunny. 5 mph 34% 29.87 "Hg 10 mi
2:35 pm 80 °F Sunny. 3 mph 38% 29.89 "Hg 10 mi
2:15 pm 78 °F Sunny. No wind 42% 29.89 "Hg 10 mi
1:55 pm 76 °F Sunny. No wind 46% 29.90 "Hg 10 mi
1:15 pm 73 °F Sunny. No wind 55% 29.91 "Hg 10 mi
12:55 pm 71 °F Sunny. No wind 60% 29.93 "Hg 10 mi
12:35 pm 71 °F Sunny. No wind 60% 29.94 "Hg 10 mi
12:15 pm 70 °F Sunny. 3 mph 65% 29.94 "Hg 7 mi
11:55 am 69 °F Scattered clouds. 5 mph 68% 29.96 "Hg 10 mi
11:35 am 67 °F Partly sunny. No wind 70% 29.96 "Hg 10 mi
11:15 am 65 °F Overcast. 6 mph 76% 29.96 "Hg 10 mi
10:55 am 64 °F Overcast. 3 mph 79% 29.97 "Hg 10 mi
10:35 am 64 °F Overcast. 3 mph 79% 29.98 "Hg 10 mi
10:15 am 63 °F Overcast. 5 mph 82% 29.97 "Hg 10 mi
9:55 am 62 °F Overcast. 8 mph 85% 29.97 "Hg 10 mi
9:35 am 63 °F Overcast. 5 mph 84% 29.97 "Hg 10 mi
8:55 am 62 °F Low clouds. 6 mph 89% 29.98 "Hg 10 mi
8:15 am 61 °F Low clouds. 3 mph 97% 29.97 "Hg 7 mi
7:55 am 61 °F Overcast. 6 mph 95% 29.97 "Hg 7 mi
7:15 am 60 °F Fog. 5 mph 94% 29.97 "Hg 5 mi
6:55 am 61 °F Overcast. 3 mph 83% 29.96 "Hg 10 mi
6:35 am 61 °F Overcast. No wind 84% 29.96 "Hg 10 mi
5:55 am 61 °F Overcast. No wind 82% 29.96 "Hg 10 mi
5:35 am 61 °F Overcast. No wind 81% 29.96 "Hg 10 mi
5:15 am 60 °F Overcast. 3 mph 82% 29.96 "Hg 10 mi
4:55 am 60 °F Overcast. 3 mph 82% 29.96 "Hg 10 mi
4:35 am 60 °F Overcast. 3 mph 84% 29.97 "Hg 10 mi
3:55 am 58 °F Overcast. No wind 87% 29.97 "Hg 10 mi
3:35 am 58 °F Overcast. 6 mph 94% 29.96 "Hg 10 mi
3:15 am 57 °F Passing clouds. 5 mph 94% 29.97 "Hg 10 mi
2:55 am 57 °F Passing clouds. 5 mph 91% 29.98 "Hg 10 mi
2:35 am 58 °F Clear. 8 mph 89% 29.98 "Hg 10 mi
1:55 am 56 °F Clear. 5 mph 76% 30.00 "Hg 10 mi
1:15 am 57 °F Clear. 3 mph 70% 30.01 "Hg 10 mi
12:55 am 57 °F Clear. 5 mph 67% 30.00 "Hg 10 mi
12:15 am 58 °F Clear. 3 mph 62% 30.02 "Hg 10 mi
11:55 pm
Thu, May 7
60 °F Clear. 5 mph 58% 30.02 "Hg 10 mi
11:15 pm 60 °F Passing clouds. 6 mph 56% 30.01 "Hg 10 mi
Weather by CustomWeather, © 2026

See weather overview